Terminal Aerodrome Forecast
Issued by NWS

Home | Current Version | Previous Version | Graphics & Text | Print | Product List | Glossary On
Versions: 1 2 3 4 5 6 7 8 9 10 11 12
434
FTUS41 KCLE 252330
TAFFDY
TAF
KFDY 252330Z 2600/2624 30005KT P6SM BKN250
     FM260800 VRB03KT 6SM BR SKC
     FM261500 04008KT P6SM SCT035
     FM261800 04004KT P6SM SKC=

USA.gov is the U.S. government's official web portal to all federal, state and local government web resources and services.